sensor_id;sensor_type;location;lat;lon;timestamp;temperature;humidity
20985;DHT22;10651;47.552;7.606;2023-03-01T07:20:38;1.60;99.90
20985;DHT22;10651;47.552;7.606;2023-03-01T07:26:01;1.50;99.90
20985;DHT22;10651;47.552;7.606;2023-03-01T07:28:29;1.60;99.90
20985;DHT22;10651;47.552;7.606;2023-03-01T07:31:07;1.70;99.90
20985;DHT22;10651;47.552;7.606;2023-03-01T07:33:37;1.70;99.90
20985;DHT22;10651;47.552;7.606;2023-03-01T07:36:15;1.60;99.90
20985;DHT22;10651;47.552;7.606;2023-03-01T07:41:20;1.70;99.90
20985;DHT22;10651;47.552;7.606;2023-03-01T07:43:52;1.70;99.90
20985;DHT22;10651;47.552;7.606;2023-03-01T07:46:23;1.70;99.90
20985;DHT22;10651;47.552;7.606;2023-03-01T07:48:55;1.70;99.90
20985;DHT22;10651;47.552;7.606;2023-03-01T07:51:24;1.70;99.90
20985;DHT22;10651;47.552;7.606;2023-03-01T07:54:14;1.70;99.90
20985;DHT22;10651;47.552;7.606;2023-03-01T07:56:41;1.70;99.90
20985;DHT22;10651;47.552;7.606;2023-03-01T07:59:16;1.80;99.90
20985;DHT22;10651;47.552;7.606;2023-03-01T08:01:42;1.80;99.90
20985;DHT22;10651;47.552;7.606;2023-03-01T08:04:16;1.80;99.90
20985;DHT22;10651;47.552;7.606;2023-03-01T08:07:00;1.70;99.90
20985;DHT22;10651;47.552;7.606;2023-03-01T08:09:40;1.80;99.90
20985;DHT22;10651;47.552;7.606;2023-03-01T08:12:11;1.80;99.90
20985;DHT22;10651;47.552;7.606;2023-03-01T08:14:49;1.70;99.90
20985;DHT22;10651;47.552;7.606;2023-03-01T08:17:15;1.80;99.90
20985;DHT22;10651;47.552;7.606;2023-03-01T08:33:36;1.80;99.90
20985;DHT22;10651;47.552;7.606;2023-03-01T08:39:23;2.00;99.90
20985;DHT22;10651;47.552;7.606;2023-03-01T08:41:51;2.10;99.90
20985;DHT22;10651;47.552;7.606;2023-03-01T08:48:15;2.00;99.90
20985;DHT22;10651;47.552;7.606;2023-03-01T08:50:41;2.10;99.90
20985;DHT22;10651;47.552;7.606;2023-03-01T08:53:12;2.10;99.90
20985;DHT22;10651;47.552;7.606;2023-03-01T08:55:44;2.10;99.90
20985;DHT22;10651;47.552;7.606;2023-03-01T08:58:12;2.20;99.90
20985;DHT22;10651;47.552;7.606;2023-03-01T09:00:45;2.10;99.90
20985;DHT22;10651;47.552;7.606;2023-03-01T09:03:13;2.20;99.90
20985;DHT22;10651;47.552;7.606;2023-03-01T09:05:53;2.20;99.90
20985;DHT22;10651;47.552;7.606;2023-03-01T09:08:23;2.20;99.90
20985;DHT22;10651;47.552;7.606;2023-03-01T09:10:49;2.30;99.90
20985;DHT22;10651;47.552;7.606;2023-03-01T09:13:21;2.30;99.90
20985;DHT22;10651;47.552;7.606;2023-03-01T09:15:58;2.20;99.90
20985;DHT22;10651;47.552;7.606;2023-03-01T09:18:37;2.10;99.90
20985;DHT22;10651;47.552;7.606;2023-03-01T09:21:15;2.20;99.90
20985;DHT22;10651;47.552;7.606;2023-03-01T09:26:48;2.20;99.90
20985;DHT22;10651;47.552;7.606;2023-03-01T09:29:20;2.20;99.90
20985;DHT22;10651;47.552;7.606;2023-03-01T09:31:57;2.20;99.90
20985;DHT22;10651;47.552;7.606;2023-03-01T09:34:26;2.20;99.90
20985;DHT22;10651;47.552;7.606;2023-03-01T09:37:01;2.30;99.90
20985;DHT22;10651;47.552;7.606;2023-03-01T09:39:27;2.30;99.90
20985;DHT22;10651;47.552;7.606;2023-03-01T09:42:14;2.30;99.90
20985;DHT22;10651;47.552;7.606;2023-03-01T09:45:15;2.20;99.90
20985;DHT22;10651;47.552;7.606;2023-03-01T09:47:48;2.40;99.90
20985;DHT22;10651;47.552;7.606;2023-03-01T09:50:31;2.50;99.90
20985;DHT22;10651;47.552;7.606;2023-03-01T09:53:09;2.50;99.90
20985;DHT22;10651;47.552;7.606;2023-03-01T09:55:55;2.50;99.90
20985;DHT22;10651;47.552;7.606;2023-03-01T10:16:57;2.70;99.90
20985;DHT22;10651;47.552;7.606;2023-03-01T10:19:04;2.80;99.90
20985;DHT22;10651;47.552;7.606;2023-03-01T10:21:36;2.90;99.90
20985;DHT22;10651;47.552;7.606;2023-03-01T10:24:15;2.90;99.90
20985;DHT22;10651;47.552;7.606;2023-03-01T10:29:12;3.00;99.90
20985;DHT22;10651;47.552;7.606;2023-03-01T10:31:50;3.00;99.90
20985;DHT22;10651;47.552;7.606;2023-03-01T10:34:25;3.00;99.90
20985;DHT22;10651;47.552;7.606;2023-03-01T10:37:08;3.00;99.90
20985;DHT22;10651;47.552;7.606;2023-03-01T10:39:35;3.10;99.90
20985;DHT22;10651;47.552;7.606;2023-03-01T10:44:45;3.20;99.90
20985;DHT22;10651;47.552;7.606;2023-03-01T10:47:23;3.20;99.90
20985;DHT22;10651;47.552;7.606;2023-03-01T10:50:01;3.30;99.90
20985;DHT22;10651;47.552;7.606;2023-03-01T10:52:37;3.40;99.90
20985;DHT22;10651;47.552;7.606;2023-03-01T11:00:47;3.40;99.90
20985;DHT22;10651;47.552;7.606;2023-03-01T11:03:36;3.40;99.90
20985;DHT22;10651;47.552;7.606;2023-03-01T11:08:43;3.50;99.90
20985;DHT22;10651;47.552;7.606;2023-03-01T11:16:45;3.50;99.90
20985;DHT22;10651;47.552;7.606;2023-03-01T11:19:16;3.40;99.90
20985;DHT22;10651;47.552;7.606;2023-03-01T11:24:19;3.60;99.90
20985;DHT22;10651;47.552;7.606;2023-03-01T11:26:54;3.70;99.90
20985;DHT22;10651;47.552;7.606;2023-03-01T11:29:41;3.60;99.90
20985;DHT22;10651;47.552;7.606;2023-03-01T11:32:19;3.70;99.90
20985;DHT22;10651;47.552;7.606;2023-03-01T11:35:08;3.70;99.90
20985;DHT22;10651;47.552;7.606;2023-03-01T11:37:49;3.80;99.90
20985;DHT22;10651;47.552;7.606;2023-03-01T11:54:06;4.10;99.90
20985;DHT22;10651;47.552;7.606;2023-03-01T11:56:39;4.20;99.90
20985;DHT22;10651;47.552;7.606;2023-03-01T11:59:32;4.20;99.90
20985;DHT22;10651;47.552;7.606;2023-03-01T12:08:15;4.30;99.90
20985;DHT22;10651;47.552;7.606;2023-03-01T12:22:13;4.60;99.90
20985;DHT22;10651;47.552;7.606;2023-03-01T12:25:00;4.60;99.90
20985;DHT22;10651;47.552;7.606;2023-03-01T12:36:05;4.80;99.90
20985;DHT22;10651;47.552;7.606;2023-03-01T12:41:35;5.00;99.90
20985;DHT22;10651;47.552;7.606;2023-03-01T12:49:34;5.10;99.90
20985;DHT22;10651;47.552;7.606;2023-03-01T12:52:02;5.20;99.90
20985;DHT22;10651;47.552;7.606;2023-03-01T12:54:36;5.30;99.90
20985;DHT22;10651;47.552;7.606;2023-03-01T12:57:12;5.40;99.90
20985;DHT22;10651;47.552;7.606;2023-03-01T12:59:47;5.40;99.90
20985;DHT22;10651;47.552;7.606;2023-03-01T13:02:25;5.40;99.90
20985;DHT22;10651;47.552;7.606;2023-03-01T13:05:17;5.50;99.90
20985;DHT22;10651;47.552;7.606;2023-03-01T13:18:02;5.70;99.90
20985;DHT22;10651;47.552;7.606;2023-03-01T13:20:45;5.80;99.90
20985;DHT22;10651;47.552;7.606;2023-03-01T13:23:30;5.70;99.90
20985;DHT22;10651;47.552;7.606;2023-03-01T13:28:36;5.80;99.90
20985;DHT22;10651;47.552;7.606;2023-03-01T13:31:05;5.80;99.90
20985;DHT22;10651;47.552;7.606;2023-03-01T13:42:56;5.40;99.90
20985;DHT22;10651;47.552;7.606;2023-03-01T14:38:50;5.50;99.90
20985;DHT22;10651;47.552;7.606;2023-03-01T14:41:22;5.60;99.90
20985;DHT22;10651;47.552;7.606;2023-03-01T14:44:07;5.60;99.90
20985;DHT22;10651;47.552;7.606;2023-03-01T14:46:41;5.70;99.90
20985;DHT22;10651;47.552;7.606;2023-03-01T14:49:29;5.70;99.90
20985;DHT22;10651;47.552;7.606;2023-03-01T14:58:46;5.70;99.90
20985;DHT22;10651;47.552;7.606;2023-03-01T15:01:39;5.60;99.90
20985;DHT22;10651;47.552;7.606;2023-03-01T15:04:55;5.70;99.90
20985;DHT22;10651;47.552;7.606;2023-03-01T15:10:54;5.70;99.90
20985;DHT22;10651;47.552;7.606;2023-03-01T15:27:03;5.90;99.90
20985;DHT22;10651;47.552;7.606;2023-03-01T15:33:41;6.00;99.90
20985;DHT22;10651;47.552;7.606;2023-03-01T15:39:55;6.00;99.90
20985;DHT22;10651;47.552;7.606;2023-03-01T18:06:37;4.60;99.90
20985;DHT22;10651;47.552;7.606;2023-03-01T18:09:38;4.60;99.90
20985;DHT22;10651;47.552;7.606;2023-03-01T18:53:01;4.80;99.90
20985;DHT22;10651;47.552;7.606;2023-03-01T19:26:43;4.90;99.90
20985;DHT22;10651;47.552;7.606;2023-03-01T20:05:35;5.00;99.90
20985;DHT22;10651;47.552;7.606;2023-03-01T20:14:06;5.00;99.90
20985;DHT22;10651;47.552;7.606;2023-03-01T20:16:47;5.00;99.90
20985;DHT22;10651;47.552;7.606;2023-03-01T20:19:17;5.00;99.90
20985;DHT22;10651;47.552;7.606;2023-03-01T20:21:55;5.00;99.90
20985;DHT22;10651;47.552;7.606;2023-03-01T20:24:24;5.00;99.90
20985;DHT22;10651;47.552;7.606;2023-03-01T20:26:59;4.90;99.90
20985;DHT22;10651;47.552;7.606;2023-03-01T20:29:58;5.00;99.90
20985;DHT22;10651;47.552;7.606;2023-03-01T20:32:27;4.90;99.90
20985;DHT22;10651;47.552;7.606;2023-03-01T20:34:57;5.00;99.90
20985;DHT22;10651;47.552;7.606;2023-03-01T20:37:40;5.00;99.90
20985;DHT22;10651;47.552;7.606;2023-03-01T20:40:24;5.00;99.90
20985;DHT22;10651;47.552;7.606;2023-03-01T21:03:46;4.90;99.90
20985;DHT22;10651;47.552;7.606;2023-03-01T21:06:18;4.90;99.90
20985;DHT22;10651;47.552;7.606;2023-03-01T21:09:01;4.90;99.90
20985;DHT22;10651;47.552;7.606;2023-03-01T21:11:34;4.90;99.90
20985;DHT22;10651;47.552;7.606;2023-03-01T21:14:01;5.00;99.90
20985;DHT22;10651;47.552;7.606;2023-03-01T21:17:07;4.90;99.90
20985;DHT22;10651;47.552;7.606;2023-03-01T21:20:00;5.00;99.90
20985;DHT22;10651;47.552;7.606;2023-03-01T21:22:50;5.00;99.90
20985;DHT22;10651;47.552;7.606;2023-03-01T21:25:32;5.00;99.90
20985;DHT22;10651;47.552;7.606;2023-03-01T21:28:19;5.00;99.90
20985;DHT22;10651;47.552;7.606;2023-03-01T22:05:09;5.10;99.90
20985;DHT22;10651;47.552;7.606;2023-03-01T22:07:51;5.00;99.90
20985;DHT22;10651;47.552;7.606;2023-03-01T22:10:37;5.10;99.90
20985;DHT22;10651;47.552;7.606;2023-03-01T22:13:42;5.10;99.90
20985;DHT22;10651;47.552;7.606;2023-03-01T22:16:43;5.10;99.90
20985;DHT22;10651;47.552;7.606;2023-03-01T22:19:27;5.10;99.90
20985;DHT22;10651;47.552;7.606;2023-03-01T22:27:26;5.10;99.90
20985;DHT22;10651;47.552;7.606;2023-03-01T22:34:05;5.00;99.90
20985;DHT22;10651;47.552;7.606;2023-03-01T22:36:48;5.10;99.90
20985;DHT22;10651;47.552;7.606;2023-03-01T22:40:11;5.10;99.90
20985;DHT22;10651;47.552;7.606;2023-03-01T22:43:00;5.10;99.90
20985;DHT22;10651;47.552;7.606;2023-03-01T22:48:13;5.10;99.90
